createdAt,value
2018-07-14T00:02:56.285Z,94.90
2018-07-14T00:05:26.816Z,95.20
2018-07-14T00:07:57.244Z,94.90
2018-07-14T00:10:27.169Z,95.20
2018-07-14T00:13:04.549Z,95.30
2018-07-14T00:15:36.309Z,95.40
2018-07-14T00:18:08.301Z,95.30
2018-07-14T00:20:39.496Z,95.50
2018-07-14T00:23:11.389Z,95.70
2018-07-14T00:25:51.619Z,95.80
2018-07-14T00:28:21.784Z,95.90
2018-07-14T00:30:56.316Z,95.90
2018-07-14T00:33:27.329Z,96.10
2018-07-14T00:35:58.000Z,96.30
2018-07-14T00:41:01.538Z,96.20
2018-07-14T00:43:36.489Z,96.30
2018-07-14T00:46:11.241Z,96.50
2018-07-14T00:48:41.441Z,96.60
2018-07-14T00:51:11.908Z,96.70
2018-07-14T00:53:45.036Z,96.70
2018-07-14T00:56:16.024Z,96.70
2018-07-14T00:58:45.748Z,96.70
2018-07-14T01:01:19.015Z,96.70
2018-07-14T01:03:52.911Z,96.70
2018-07-14T01:06:29.933Z,96.90
2018-07-14T01:08:59.604Z,97.00
2018-07-14T01:11:31.054Z,97.20
2018-07-14T01:14:00.891Z,97.40
2018-07-14T01:16:30.371Z,97.50
2018-07-14T01:19:01.951Z,97.60
2018-07-14T01:21:35.624Z,97.80
2018-07-14T01:24:06.785Z,98.00
2018-07-14T01:26:39.760Z,98.30
2018-07-14T01:29:09.165Z,98.60
2018-07-14T01:31:41.269Z,98.80
2018-07-14T01:34:12.784Z,98.80
2018-07-14T01:36:43.492Z,98.80
2018-07-14T01:39:14.917Z,98.80
2018-07-14T01:41:48.184Z,98.80
2018-07-14T01:44:19.144Z,98.80
2018-07-14T01:46:49.945Z,98.80
2018-07-14T01:49:24.770Z,98.90
2018-07-14T01:51:55.474Z,99.00
2018-07-14T01:54:27.662Z,98.90
2018-07-14T01:56:58.869Z,99.10
2018-07-14T02:02:00.352Z,99.70
2018-07-14T02:04:31.888Z,99.70
2018-07-14T02:07:07.916Z,99.90
2018-07-14T02:09:39.472Z,99.90
2018-07-14T02:12:10.772Z,99.90
2018-07-14T02:14:42.125Z,99.90
2018-07-14T02:17:15.611Z,99.90
2018-07-14T02:22:21.155Z,99.90
2018-07-14T02:24:53.017Z,99.90
2018-07-14T02:27:33.224Z,99.90
2018-07-14T02:30:04.189Z,99.90
2018-07-14T02:32:35.614Z,99.90
2018-07-14T02:35:08.440Z,99.80
2018-07-14T02:37:40.968Z,99.80
2018-07-14T02:40:11.440Z,99.90
2018-07-14T02:42:46.431Z,99.90
2018-07-14T02:45:20.633Z,99.90
2018-07-14T02:47:50.925Z,99.90
2018-07-14T02:50:22.493Z,99.90
2018-07-14T02:55:24.081Z,99.90
2018-07-14T02:57:54.161Z,99.90
2018-07-14T03:00:28.822Z,99.90
2018-07-14T03:02:58.560Z,99.90
2018-07-14T03:05:29.756Z,99.90
2018-07-14T03:08:00.669Z,99.90
2018-07-14T03:10:30.392Z,99.90
2018-07-14T03:13:01.084Z,99.90
2018-07-14T03:15:31.973Z,99.90
2018-07-14T03:18:05.524Z,99.90
2018-07-14T03:20:36.680Z,99.90
2018-07-14T03:23:09.561Z,99.90
2018-07-14T03:25:39.359Z,99.90
2018-07-14T03:28:10.194Z,99.90
2018-07-14T03:30:39.720Z,99.90
2018-07-14T03:33:10.007Z,99.90
2018-07-14T03:38:12.211Z,99.90
2018-07-14T03:40:45.741Z,99.90
2018-07-14T03:45:54.049Z,99.90
2018-07-14T03:48:24.749Z,99.90
2018-07-14T03:53:27.778Z,99.90
2018-07-14T03:55:56.858Z,99.90
2018-07-14T03:58:29.325Z,99.90
2018-07-14T04:01:03.805Z,99.90
2018-07-14T04:03:33.792Z,99.90
2018-07-14T04:06:03.464Z,99.90
2018-07-14T04:11:02.652Z,99.90
2018-07-14T04:13:34.985Z,99.90
2018-07-14T04:16:04.664Z,99.90
2018-07-14T04:21:05.785Z,99.90
2018-07-14T04:23:36.488Z,99.90
2018-07-14T04:26:05.852Z,99.90
2018-07-14T04:28:35.976Z,99.90
2018-07-14T04:31:07.337Z,99.90
2018-07-14T04:38:42.821Z,99.90
2018-07-14T04:41:14.565Z,99.90
2018-07-14T04:46:15.724Z,99.90
2018-07-14T04:51:19.804Z,99.90
2018-07-14T04:53:52.029Z,99.90
2018-07-14T04:56:23.017Z,99.90
2018-07-14T04:58:58.048Z,99.90
2018-07-14T05:01:38.644Z,99.90
2018-07-14T05:04:17.791Z,99.90
2018-07-14T05:07:07.059Z,99.90
2018-07-14T05:09:47.405Z,99.90
2018-07-14T05:12:25.105Z,99.90
2018-07-14T05:15:02.657Z,99.90
2018-07-14T05:17:45.123Z,99.90
2018-07-14T05:20:24.257Z,99.20
2018-07-14T05:25:48.150Z,98.30
2018-07-14T05:36:03.797Z,97.10
2018-07-14T05:38:34.580Z,97.30
2018-07-14T05:41:06.950Z,97.30
2018-07-14T05:43:47.394Z,97.20
2018-07-14T05:46:21.159Z,97.00
2018-07-14T05:48:53.033Z,96.70
2018-07-14T05:51:23.024Z,96.90
2018-07-14T05:53:57.190Z,96.70
2018-07-14T05:56:28.340Z,96.20
2018-07-14T05:58:57.408Z,95.00
2018-07-14T06:01:26.744Z,94.50
2018-07-14T06:03:56.281Z,94.70
2018-07-14T06:06:25.694Z,94.60
2018-07-14T06:08:54.856Z,94.90
2018-07-14T06:11:23.981Z,95.90
2018-07-14T06:13:53.480Z,95.80
2018-07-14T06:16:22.697Z,95.70
2018-07-14T06:18:52.100Z,94.40
2018-07-14T06:21:22.134Z,94.30
2018-07-14T06:23:51.900Z,94.30
2018-07-14T06:26:21.009Z,94.00
2018-07-14T06:28:50.608Z,93.10
2018-07-14T06:31:19.696Z,91.80
2018-07-14T06:33:48.827Z,91.70
2018-07-14T06:36:17.921Z,90.80
2018-07-14T06:38:48.856Z,90.90
2018-07-14T06:41:20.310Z,90.90
2018-07-14T06:46:19.624Z,91.30
2018-07-14T06:48:49.632Z,91.40
2018-07-14T06:51:18.761Z,91.10
2018-07-14T06:53:47.836Z,90.70
2018-07-14T06:56:18.836Z,89.30
2018-07-14T06:58:52.061Z,87.80
2018-07-14T07:01:21.872Z,87.30
2018-07-14T07:03:51.560Z,86.90
2018-07-14T07:06:23.238Z,86.90
2018-07-14T07:08:57.545Z,85.00
2018-07-14T07:11:29.733Z,83.70
2018-07-14T07:13:59.340Z,83.90
2018-07-14T07:16:31.625Z,82.10
2018-07-14T07:21:32.851Z,79.30
2018-07-14T07:26:34.432Z,80.70
2018-07-14T07:29:11.488Z,79.20
2018-07-14T07:31:43.041Z,78.70
2018-07-14T07:34:14.961Z,80.30
2018-07-14T07:39:16.909Z,76.80
2018-07-14T07:41:52.420Z,76.30
2018-07-14T07:44:24.384Z,76.00
2018-07-14T07:46:56.853Z,72.30
2018-07-14T07:49:30.600Z,68.60
2018-07-14T07:54:31.295Z,67.90
2018-07-14T07:57:04.973Z,63.90
2018-07-14T08:02:09.813Z,63.30
2018-07-14T08:04:42.060Z,66.90
2018-07-14T08:07:17.208Z,68.40
2018-07-14T08:09:47.828Z,64.70
2018-07-14T08:12:17.348Z,66.20
2018-07-14T08:14:48.758Z,60.30
2018-07-14T08:17:23.804Z,58.50
2018-07-14T08:19:53.837Z,52.30
2018-07-14T08:22:26.366Z,46.70
2018-07-14T08:27:25.728Z,45.50
2018-07-14T08:30:01.152Z,48.10
2018-07-14T08:32:30.798Z,49.40
2018-07-14T08:35:01.470Z,49.40
2018-07-14T08:37:34.988Z,49.20
2018-07-14T08:40:04.140Z,49.20
2018-07-14T08:42:33.813Z,45.90
2018-07-14T08:45:05.189Z,40.50
2018-07-14T08:47:34.356Z,45.50
2018-07-14T08:50:06.222Z,45.20
2018-07-14T08:52:36.860Z,42.80
2018-07-14T08:55:08.541Z,41.50
2018-07-14T08:57:38.052Z,39.20
2018-07-14T09:00:09.173Z,39.00
2018-07-14T09:05:11.461Z,37.50
2018-07-14T09:07:41.349Z,33.30
2018-07-14T09:10:11.156Z,30.30
2018-07-14T09:12:44.157Z,35.50
2018-07-14T09:17:45.740Z,34.90
2018-07-14T09:20:15.941Z,36.50
2018-07-14T09:22:47.772Z,39.00
2018-07-14T09:25:23.822Z,35.80
2018-07-14T09:27:57.430Z,36.30
2018-07-14T09:33:00.365Z,33.00
2018-07-14T09:35:38.996Z,32.00
2018-07-14T09:38:09.822Z,30.70
2018-07-14T09:40:46.694Z,30.30
2018-07-14T09:43:17.705Z,29.70
2018-07-14T09:45:49.233Z,31.90
2018-07-14T09:48:19.865Z,30.40
2018-07-14T09:50:50.661Z,30.20
2018-07-14T09:53:24.713Z,29.10
2018-07-14T09:55:54.817Z,28.60
2018-07-14T09:58:27.978Z,32.10
2018-07-14T10:01:08.371Z,31.00
2018-07-14T10:03:40.536Z,30.40
2018-07-14T10:06:15.528Z,30.70
2018-07-14T10:08:44.651Z,31.10
2018-07-14T10:11:19.120Z,34.20
2018-07-14T10:16:26.072Z,30.60
2018-07-14T10:19:00.597Z,28.60
2018-07-14T10:21:31.502Z,28.70
2018-07-14T10:24:09.331Z,28.50
2018-07-14T10:26:38.636Z,27.40
2018-07-14T10:29:08.798Z,26.40
2018-07-14T10:34:08.778Z,28.40
2018-07-14T10:36:39.718Z,29.30
2018-07-14T10:39:10.558Z,30.30
2018-07-14T10:41:39.656Z,28.50
2018-07-14T10:44:11.216Z,27.20
2018-07-14T10:46:43.958Z,26.90
2018-07-14T10:49:14.413Z,25.80
2018-07-14T10:51:44.938Z,26.10
2018-07-14T10:54:16.812Z,25.30
2018-07-14T10:56:46.538Z,27.90
2018-07-14T10:59:18.472Z,28.80
2018-07-14T11:01:54.224Z,28.70
2018-07-14T11:04:25.352Z,30.50
2018-07-14T11:06:55.909Z,31.40
2018-07-14T11:09:30.532Z,30.00
2018-07-14T11:14:34.142Z,29.10
2018-07-14T11:17:04.311Z,30.00
2018-07-14T11:19:33.645Z,29.70
2018-07-14T11:22:05.808Z,30.60
2018-07-14T11:24:36.859Z,31.40
2018-07-14T11:27:09.049Z,31.80
2018-07-14T11:29:41.117Z,30.20
2018-07-14T11:32:11.517Z,27.90
2018-07-14T11:34:43.709Z,27.40
2018-07-14T11:37:14.136Z,26.60
2018-07-14T11:39:45.211Z,26.00
2018-07-14T11:42:15.656Z,25.70
2018-07-14T11:44:45.316Z,25.90
2018-07-14T11:47:22.453Z,25.60
2018-07-14T11:50:02.192Z,26.30
2018-07-14T11:52:33.876Z,27.60
2018-07-14T11:55:05.301Z,28.10
2018-07-14T11:57:35.780Z,31.50
2018-07-14T12:00:07.434Z,32.50
2018-07-14T12:02:42.576Z,30.70
2018-07-14T12:05:16.281Z,29.80
2018-07-14T12:07:53.742Z,29.40
2018-07-14T12:12:55.112Z,31.80
2018-07-14T12:15:25.977Z,34.10
2018-07-14T12:17:57.953Z,35.30
2018-07-14T12:20:29.340Z,34.50
2018-07-14T12:28:04.248Z,32.10
2018-07-14T12:30:39.266Z,29.80
2018-07-14T12:33:14.812Z,28.30
2018-07-14T12:35:45.773Z,28.30
2018-07-14T12:38:22.508Z,27.60
2018-07-14T12:40:58.689Z,27.30
2018-07-14T12:43:30.601Z,26.70
2018-07-14T12:46:00.820Z,26.60
2018-07-14T12:48:33.600Z,26.40
2018-07-14T12:51:04.103Z,27.10
2018-07-14T12:53:35.660Z,27.70
2018-07-14T12:56:04.833Z,27.20
2018-07-14T13:03:36.833Z,27.10
2018-07-14T13:06:10.705Z,28.10
2018-07-14T13:08:41.018Z,28.70
2018-07-14T13:11:13.253Z,29.30
2018-07-14T13:13:42.381Z,29.00
2018-07-14T13:16:13.356Z,28.70
2018-07-14T13:21:12.464Z,31.40
2018-07-14T13:26:13.977Z,32.00
2018-07-14T13:28:45.581Z,29.30
2018-07-14T13:31:16.057Z,28.70
2018-07-14T13:33:46.903Z,27.20
2018-07-14T13:36:16.523Z,26.10
2018-07-14T13:38:51.734Z,26.40
2018-07-14T13:43:51.021Z,25.40
2018-07-14T13:46:21.361Z,24.80
2018-07-14T13:48:53.804Z,25.40
2018-07-14T13:51:23.601Z,25.50
2018-07-14T13:53:55.333Z,26.40
2018-07-14T13:56:26.240Z,27.00
2018-07-14T13:58:58.229Z,25.70
2018-07-14T14:01:29.709Z,25.30
2018-07-14T14:04:09.684Z,25.80
2018-07-14T14:06:49.903Z,25.30
2018-07-14T14:09:32.875Z,26.70
2018-07-14T14:12:16.815Z,26.20
2018-07-14T14:17:43.233Z,25.60
2018-07-14T14:25:40.376Z,24.90
2018-07-14T14:28:14.261Z,24.90
2018-07-14T14:33:42.195Z,25.00
2018-07-14T14:36:13.413Z,23.80
2018-07-14T14:38:53.004Z,24.60
2018-07-14T14:41:25.508Z,24.30
2018-07-14T14:43:57.817Z,25.70
2018-07-14T14:48:59.353Z,27.30
2018-07-14T14:51:35.089Z,29.00
2018-07-14T14:54:06.065Z,30.00
2018-07-14T14:56:36.782Z,30.80
2018-07-14T14:59:07.185Z,31.20
2018-07-14T15:01:36.245Z,31.40
2018-07-14T15:04:05.781Z,32.10
2018-07-14T15:06:34.877Z,33.00
2018-07-14T15:09:04.941Z,33.70
2018-07-14T15:11:34.030Z,34.70
2018-07-14T15:16:32.353Z,34.60
2018-07-14T15:21:30.599Z,33.60
2018-07-14T15:24:00.260Z,33.40
2018-07-14T15:26:30.339Z,34.00
2018-07-14T15:31:29.497Z,36.40
2018-07-14T15:34:00.588Z,34.60
2018-07-14T15:36:29.785Z,33.70
2018-07-14T15:38:58.977Z,33.80
2018-07-14T15:41:29.517Z,34.10
2018-07-14T15:43:59.689Z,33.20
2018-07-14T15:46:28.834Z,34.50
2018-07-14T15:53:58.049Z,33.20
2018-07-14T15:56:29.122Z,33.70
2018-07-14T15:58:58.280Z,33.90
2018-07-14T16:01:28.296Z,34.80
2018-07-14T16:03:59.413Z,36.50
2018-07-14T16:06:32.245Z,36.40
2018-07-14T16:09:04.881Z,36.40
2018-07-14T16:11:38.529Z,36.30
2018-07-14T16:14:08.770Z,35.70
2018-07-14T16:16:39.645Z,35.70
2018-07-14T16:19:10.217Z,35.80
2018-07-14T16:21:40.542Z,35.80
2018-07-14T16:24:14.364Z,37.50
2018-07-14T16:29:14.187Z,36.60
2018-07-14T16:31:44.869Z,37.70
2018-07-14T16:34:19.749Z,38.10
2018-07-14T16:36:50.664Z,36.50
2018-07-14T16:39:21.604Z,35.20
2018-07-14T16:41:52.044Z,36.10
2018-07-14T16:46:53.204Z,35.70
2018-07-14T16:49:25.721Z,35.20
2018-07-14T16:51:58.993Z,36.10
2018-07-14T16:57:00.088Z,35.40
2018-07-14T16:59:30.165Z,36.60
2018-07-14T17:02:00.194Z,36.50
2018-07-14T17:04:32.788Z,36.70
2018-07-14T17:07:02.110Z,37.00
2018-07-14T17:09:34.361Z,35.20
2018-07-14T17:14:38.311Z,35.40
2018-07-14T17:17:10.860Z,34.60
2018-07-14T17:19:44.092Z,34.40
2018-07-14T17:22:15.471Z,34.60
2018-07-14T17:24:47.432Z,36.90
2018-07-14T17:27:16.525Z,37.40
2018-07-14T17:29:46.046Z,36.90
2018-07-14T17:32:17.072Z,37.70
2018-07-14T17:34:46.547Z,37.10
2018-07-14T17:37:20.825Z,37.00
2018-07-14T17:39:52.105Z,37.40
2018-07-14T17:42:26.334Z,39.30
2018-07-14T17:45:00.653Z,37.50
2018-07-14T17:47:32.216Z,38.00
2018-07-14T17:50:04.837Z,38.00
2018-07-14T17:55:06.177Z,38.90
2018-07-14T17:57:37.740Z,38.00
2018-07-14T18:00:08.315Z,38.60
2018-07-14T18:02:40.820Z,39.20
2018-07-14T18:05:16.592Z,40.40
2018-07-14T18:07:46.462Z,39.30
2018-07-14T18:10:16.686Z,40.40
2018-07-14T18:12:51.002Z,39.40
2018-07-14T18:15:24.440Z,41.60
2018-07-14T18:17:55.896Z,42.10
2018-07-14T18:20:25.589Z,42.90
2018-07-14T18:22:56.848Z,44.80
2018-07-14T18:25:26.329Z,45.20
2018-07-14T18:27:56.242Z,46.80
2018-07-14T18:30:29.321Z,47.50
2018-07-14T18:32:59.273Z,48.00
2018-07-14T18:35:29.788Z,47.80
2018-07-14T18:38:10.738Z,48.90
2018-07-14T18:40:46.596Z,50.40
2018-07-14T18:43:17.248Z,51.50
2018-07-14T18:45:50.655Z,52.20
2018-07-14T18:48:20.837Z,54.50
2018-07-14T18:50:52.334Z,54.40
2018-07-14T18:55:59.831Z,58.40
2018-07-14T18:58:29.339Z,60.20
2018-07-14T19:01:01.332Z,62.60
2018-07-14T19:06:01.025Z,66.20
2018-07-14T19:08:30.072Z,66.70
2018-07-14T19:11:01.794Z,67.80
2018-07-14T19:13:34.230Z,68.20
2018-07-14T19:16:04.080Z,68.70
2018-07-14T19:18:35.809Z,68.60
2018-07-14T19:21:11.960Z,68.70
2018-07-14T19:23:44.027Z,69.20
2018-07-14T19:26:13.477Z,70.00
2018-07-14T19:31:13.253Z,71.20
2018-07-14T19:33:45.553Z,72.10
2018-07-14T19:36:15.029Z,74.50
2018-07-14T19:38:46.889Z,75.60
2018-07-14T19:41:18.142Z,76.20
2018-07-14T19:43:51.788Z,74.50
2018-07-14T19:46:21.568Z,74.10
2018-07-14T19:48:56.181Z,73.70
2018-07-14T19:51:26.401Z,73.70
2018-07-14T19:53:56.349Z,74.70
2018-07-14T19:56:26.534Z,74.40
2018-07-14T19:58:58.321Z,74.30
2018-07-14T20:01:28.496Z,74.80
2018-07-14T20:03:58.240Z,75.40
2018-07-14T20:06:29.596Z,74.90
2018-07-14T20:08:59.855Z,73.80
2018-07-14T20:11:29.557Z,73.70
2018-07-14T20:14:03.826Z,75.00
2018-07-14T20:16:34.441Z,75.80
2018-07-14T20:19:07.861Z,77.40
2018-07-14T20:21:38.561Z,78.50
2018-07-14T20:26:42.900Z,77.30
2018-07-14T20:29:15.613Z,77.60
2018-07-14T20:31:50.030Z,76.90
2018-07-14T20:34:24.197Z,76.60
2018-07-14T20:36:57.817Z,77.30
2018-07-14T20:42:02.085Z,77.50
2018-07-14T20:44:38.860Z,78.80
2018-07-14T20:47:14.871Z,79.40
2018-07-14T20:49:48.109Z,79.30
2018-07-14T20:52:18.789Z,79.00
2018-07-14T20:54:51.156Z,78.90
2018-07-14T20:57:23.221Z,80.00
2018-07-14T21:00:00.874Z,80.20
2018-07-14T21:02:30.590Z,80.80
2018-07-14T21:05:02.528Z,81.00
2018-07-14T21:07:31.660Z,81.30
2018-07-14T21:10:01.557Z,80.90
2018-07-14T21:12:36.857Z,81.40
2018-07-14T21:15:07.531Z,82.70
2018-07-14T21:17:39.449Z,84.10
2018-07-14T21:20:11.461Z,84.10
2018-07-14T21:22:42.221Z,83.30
2018-07-14T21:25:15.288Z,82.80
2018-07-14T21:27:45.603Z,82.40
2018-07-14T21:30:19.904Z,83.30
2018-07-14T21:33:01.449Z,83.50
2018-07-14T21:35:30.812Z,84.60
2018-07-14T21:38:06.649Z,85.80
2018-07-14T21:40:36.478Z,86.10
2018-07-14T21:43:05.552Z,86.20
2018-07-14T21:45:36.748Z,86.80
2018-07-14T21:48:14.222Z,86.20
2018-07-14T21:50:43.739Z,86.30
2018-07-14T21:55:48.155Z,86.60
2018-07-14T21:58:19.492Z,87.10
2018-07-14T22:00:55.806Z,87.60
2018-07-14T22:03:27.220Z,87.40
2018-07-14T22:06:06.791Z,88.50
2018-07-14T22:08:36.779Z,88.20
2018-07-14T22:11:12.105Z,88.40
2018-07-14T22:13:42.925Z,89.30
2018-07-14T22:18:45.005Z,89.70
2018-07-14T22:21:16.871Z,90.00
2018-07-14T22:23:47.942Z,90.10
2018-07-14T22:26:17.092Z,90.10
2018-07-14T22:28:56.133Z,90.20
2018-07-14T22:31:25.928Z,90.20
2018-07-14T22:33:56.005Z,90.10
2018-07-14T22:36:28.968Z,90.10
2018-07-14T22:39:08.900Z,90.10
2018-07-14T22:44:10.392Z,90.20
2018-07-14T22:46:43.029Z,90.40
2018-07-14T22:49:19.705Z,90.70
2018-07-14T22:51:50.031Z,90.70
2018-07-14T22:54:20.101Z,91.00
2018-07-14T22:56:51.889Z,91.00
2018-07-14T22:59:26.808Z,91.10
2018-07-14T23:01:58.042Z,91.30
2018-07-14T23:04:31.251Z,91.40
2018-07-14T23:07:13.597Z,91.60
2018-07-14T23:12:18.332Z,91.60
2018-07-14T23:14:54.313Z,91.60
2018-07-14T23:17:36.814Z,91.50
2018-07-14T23:22:40.502Z,91.20
2018-07-14T23:25:14.153Z,91.70
2018-07-14T23:27:55.162Z,92.00
2018-07-14T23:30:35.776Z,92.10
2018-07-14T23:33:14.484Z,92.30
2018-07-14T23:35:52.935Z,92.30
2018-07-14T23:38:28.956Z,92.00
2018-07-14T23:41:06.641Z,92.00
2018-07-14T23:43:39.093Z,92.60
2018-07-14T23:48:54.456Z,93.00
2018-07-14T23:51:23.584Z,93.10
2018-07-14T23:53:55.134Z,93.40
2018-07-14T23:56:24.494Z,93.40
2018-07-14T23:58:54.500Z,93.50
